createdAt,value
2019-04-21T00:00:37.421Z,8.20
2019-04-21T00:03:09.923Z,8.20
2019-04-21T00:05:57.563Z,8.10
2019-04-21T00:08:33.415Z,8.10
2019-04-21T00:11:01.136Z,7.90
2019-04-21T00:13:19.004Z,7.90
2019-04-21T00:15:44.198Z,7.90
2019-04-21T00:18:23.382Z,7.90
2019-04-21T00:20:56.263Z,7.90
2019-04-21T00:23:41.234Z,8.00
2019-04-21T00:26:03.015Z,8.00
2019-04-21T00:28:55.368Z,7.90
2019-04-21T00:31:12.380Z,7.90
2019-04-21T00:33:28.203Z,7.80
2019-04-21T00:36:02.056Z,7.80
2019-04-21T00:38:50.757Z,7.80
2019-04-21T00:41:13.757Z,7.90
2019-04-21T00:43:38.799Z,7.90
2019-04-21T00:46:04.731Z,7.90
2019-04-21T00:48:42.393Z,7.80
2019-04-21T00:53:59.558Z,7.80
2019-04-21T00:56:27.478Z,7.90
2019-04-21T00:58:59.849Z,7.90
2019-04-21T01:01:26.639Z,7.90
2019-04-21T01:03:57.735Z,7.90
2019-04-21T01:06:33.720Z,7.80
2019-04-21T01:08:55.095Z,7.80
2019-04-21T01:11:29.828Z,7.80
2019-04-21T01:14:00.643Z,7.70
2019-04-21T01:16:27.068Z,7.70
2019-04-21T01:18:55.251Z,7.60
2019-04-21T01:21:13.597Z,7.60
2019-04-21T01:23:34.070Z,7.60
2019-04-21T01:26:21.278Z,8.00
2019-04-21T01:28:49.507Z,8.00
2019-04-21T01:31:17.351Z,8.00
2019-04-21T01:33:59.247Z,8.10
2019-04-21T01:36:19.702Z,8.10
2019-04-21T01:38:59.252Z,8.10
2019-04-21T01:41:25.450Z,8.10
2019-04-21T01:43:50.303Z,8.00
2019-04-21T01:46:19.517Z,7.90
2019-04-21T01:48:49.453Z,7.90
2019-04-21T01:51:18.125Z,7.80
2019-04-21T01:54:14.665Z,7.80
2019-04-21T01:57:04.392Z,7.80
2019-04-21T01:59:26.821Z,7.70
2019-04-21T02:02:06.207Z,7.70
2019-04-21T02:04:37.200Z,7.60
2019-04-21T02:07:03.163Z,7.50
2019-04-21T02:09:38.373Z,7.30
2019-04-21T02:12:08.689Z,7.20
2019-04-21T02:14:39.309Z,7.20
2019-04-21T02:17:07.209Z,7.00
2019-04-21T02:19:31.229Z,6.80
2019-04-21T02:21:59.275Z,6.70
2019-04-21T02:24:42.719Z,6.50
2019-04-21T02:27:07.046Z,6.40
2019-04-21T02:29:41.158Z,6.40
2019-04-21T02:32:14.577Z,6.20
2019-04-21T02:34:49.082Z,6.10
2019-04-21T02:39:49.044Z,6.80
2019-04-21T02:44:56.928Z,6.90
2019-04-21T02:49:55.356Z,6.80
2019-04-21T02:52:23.749Z,7.00
2019-04-21T02:55:02.352Z,7.00
2019-04-21T02:57:34.631Z,6.90
2019-04-21T02:59:58.266Z,6.80
2019-04-21T03:02:35.013Z,6.80
2019-04-21T03:05:02.313Z,6.70
2019-04-21T03:07:44.292Z,6.80
2019-04-21T03:10:09.003Z,6.70
2019-04-21T03:12:28.662Z,6.70
2019-04-21T03:17:43.634Z,6.70
2019-04-21T03:30:26.261Z,6.70
2019-04-21T03:33:16.628Z,6.70
2019-04-21T03:45:06.686Z,6.80
2019-04-21T03:50:22.634Z,7.00
2019-04-21T03:52:38.847Z,7.20
2019-04-21T04:06:03.514Z,6.70
2019-04-21T04:08:44.779Z,6.70
2019-04-21T04:13:39.160Z,7.00
2019-04-21T04:16:08.323Z,7.20
2019-04-21T04:18:44.582Z,7.60
2019-04-21T04:21:07.572Z,7.80
2019-04-21T04:23:37.509Z,7.70
2019-04-21T04:25:59.174Z,7.80
2019-04-21T04:28:39.931Z,8.00
2019-04-21T04:33:41.775Z,8.30
2019-04-21T04:38:39.599Z,7.80
2019-04-21T04:41:12.190Z,7.80
2019-04-21T04:46:01.618Z,8.60
2019-04-21T04:48:28.856Z,8.70
2019-04-21T04:53:42.667Z,8.90
2019-04-21T04:56:08.309Z,8.60
2019-04-21T04:58:54.605Z,8.60
2019-04-21T05:03:44.296Z,9.20
2019-04-21T05:11:39.837Z,9.30
2019-04-21T05:13:57.834Z,9.40
2019-04-21T05:16:38.459Z,10.10
2019-04-21T05:19:06.442Z,10.30
2019-04-21T05:21:30.276Z,10.90
2019-04-21T05:23:44.159Z,10.60
2019-04-21T05:26:08.076Z,11.10
2019-04-21T05:28:37.344Z,11.40
2019-04-21T05:31:19.600Z,11.80
2019-04-21T05:33:55.507Z,11.10
2019-04-21T05:36:24.349Z,11.00
2019-04-21T05:38:49.242Z,10.70
2019-04-21T05:41:15.650Z,12.20
2019-04-21T05:43:57.518Z,13.80
2019-04-21T05:46:25.203Z,12.00
2019-04-21T05:49:02.890Z,12.00
2019-04-21T05:51:30.515Z,11.40
2019-04-21T05:54:21.374Z,11.60
2019-04-21T05:56:37.906Z,11.40
2019-04-21T05:59:08.964Z,11.30
2019-04-21T06:01:39.338Z,11.10
2019-04-21T06:04:15.634Z,10.80
2019-04-21T06:06:40.846Z,10.50
2019-04-21T06:09:08.272Z,10.30
2019-04-21T06:11:36.263Z,9.90
2019-04-21T06:14:12.421Z,10.40
2019-04-21T06:16:43.091Z,10.70
2019-04-21T06:19:17.150Z,11.00
2019-04-21T06:21:38.855Z,12.10
2019-04-21T06:24:12.699Z,11.40
2019-04-21T06:26:54.890Z,11.50
2019-04-21T06:29:13.463Z,11.60
2019-04-21T06:34:11.205Z,13.10
2019-04-21T06:36:46.987Z,14.70
2019-04-21T06:39:28.327Z,15.00
2019-04-21T06:41:49.091Z,15.40
2019-04-21T06:46:44.728Z,15.30
2019-04-21T06:49:18.773Z,15.50
2019-04-21T06:51:43.330Z,14.90
2019-04-21T06:54:14.720Z,15.50
2019-04-21T06:56:45.106Z,17.20
2019-04-21T06:59:17.043Z,18.50
2019-04-21T07:01:52.720Z,19.60
2019-04-21T07:04:29.556Z,18.50
2019-04-21T07:06:48.169Z,17.70
2019-04-21T07:09:22.452Z,14.40
2019-04-21T07:11:43.920Z,13.90
2019-04-21T07:16:53.065Z,16.90
2019-04-21T07:19:27.850Z,18.00
2019-04-21T07:21:50.151Z,17.40
2019-04-21T07:24:22.728Z,14.80
2019-04-21T07:26:51.542Z,14.20
2019-04-21T07:29:22.071Z,14.60
2019-04-21T07:31:55.885Z,15.60
2019-04-21T07:34:21.653Z,17.10
2019-04-21T07:37:01.011Z,17.20
2019-04-21T07:39:15.284Z,16.40
2019-04-21T07:41:46.918Z,15.80
2019-04-21T07:44:10.318Z,18.50
2019-04-21T07:46:38.511Z,17.80
2019-04-21T07:49:12.483Z,16.20
2019-04-21T07:51:50.611Z,17.10
2019-04-21T07:54:23.734Z,19.70
2019-04-21T07:56:34.868Z,21.90
2019-04-21T07:59:23.857Z,16.20
2019-04-21T08:01:50.395Z,14.70
2019-04-21T08:04:39.314Z,14.60
2019-04-21T08:09:18.259Z,18.00
2019-04-21T08:11:44.268Z,16.40
2019-04-21T08:14:17.014Z,16.20
2019-04-21T08:16:53.994Z,19.10
2019-04-21T08:19:22.152Z,20.80
2019-04-21T08:21:49.639Z,19.40
2019-04-21T08:24:21.551Z,18.50
2019-04-21T08:26:51.039Z,18.30
2019-04-21T08:29:25.703Z,17.70
2019-04-21T08:31:56.149Z,20.50
2019-04-21T08:34:21.647Z,20.40
2019-04-21T08:37:03.975Z,18.00
2019-04-21T08:39:20.011Z,17.00
2019-04-21T08:41:51.098Z,16.80
2019-04-21T08:44:20.929Z,17.80
2019-04-21T08:46:55.595Z,17.10
2019-04-21T08:49:20.370Z,17.00
2019-04-21T08:51:54.934Z,20.00
2019-04-21T08:54:24.444Z,18.40
2019-04-21T08:56:55.912Z,20.40
2019-04-21T08:59:43.518Z,16.20
2019-04-21T09:02:29.481Z,16.40
2019-04-21T09:04:58.306Z,16.70
2019-04-21T09:07:36.159Z,17.90
2019-04-21T09:09:57.757Z,17.00
2019-04-21T09:12:33.122Z,17.50
2019-04-21T09:14:59.829Z,16.60
2019-04-21T09:17:22.104Z,15.80
2019-04-21T09:20:10.639Z,16.50
2019-04-21T09:22:30.803Z,16.80
2019-04-21T09:25:00.206Z,17.60
2019-04-21T09:27:27.846Z,19.40
2019-04-21T09:29:49.486Z,21.00
2019-04-21T09:32:16.638Z,22.70
2019-04-21T09:34:43.549Z,21.40
2019-04-21T09:37:24.325Z,19.20
2019-04-21T09:39:45.012Z,19.20
2019-04-21T09:42:11.415Z,18.30
2019-04-21T09:44:43.606Z,21.10
2019-04-21T09:47:11.043Z,23.10
2019-04-21T09:49:41.517Z,22.80
2019-04-21T09:52:16.111Z,19.30
2019-04-21T09:54:48.201Z,20.20
2019-04-21T09:57:24.294Z,21.80
2019-04-21T09:59:47.610Z,22.80
2019-04-21T10:02:18.210Z,23.10
2019-04-21T10:04:42.444Z,19.50
2019-04-21T10:07:23.360Z,18.80
2019-04-21T10:09:41.810Z,17.20
2019-04-21T10:12:11.815Z,16.50
2019-04-21T10:14:40.942Z,15.10
2019-04-21T10:17:23.934Z,14.40
2019-04-21T10:19:52.966Z,14.70
2019-04-21T10:22:21.611Z,14.50
2019-04-21T10:24:50.597Z,14.50
2019-04-21T10:27:19.200Z,14.60
2019-04-21T10:29:49.071Z,14.00
2019-04-21T10:32:20.136Z,14.40
2019-04-21T10:34:49.469Z,15.10
2019-04-21T10:37:18.893Z,15.90
2019-04-21T10:39:47.611Z,15.50
2019-04-21T10:42:17.373Z,15.10
2019-04-21T10:44:47.211Z,15.10
2019-04-21T10:47:16.601Z,15.20
2019-04-21T10:49:44.846Z,14.70
2019-04-21T10:52:15.311Z,14.70
2019-04-21T10:55:08.302Z,14.50
2019-04-21T10:57:16.717Z,14.50
2019-04-21T10:59:47.862Z,14.30
2019-04-21T11:02:34.878Z,14.50
2019-04-21T11:05:04.829Z,14.50
2019-04-21T11:07:57.577Z,14.60
2019-04-21T11:10:16.159Z,14.40
2019-04-21T11:12:47.533Z,14.50
2019-04-21T11:15:15.250Z,14.10
2019-04-21T11:17:45.127Z,14.20
2019-04-21T11:20:15.059Z,13.60
2019-04-21T11:22:43.917Z,13.60
2019-04-21T11:25:12.895Z,13.50
2019-04-21T11:27:42.899Z,13.30
2019-04-21T11:30:11.980Z,13.70
2019-04-21T11:32:42.117Z,14.00
2019-04-21T11:35:11.011Z,14.10
2019-04-21T11:37:39.934Z,14.50
2019-04-21T11:40:12.266Z,14.70
2019-04-21T11:42:41.889Z,14.70
2019-04-21T11:45:14.663Z,14.80
2019-04-21T11:48:01.116Z,14.50
2019-04-21T11:50:30.922Z,14.00
2019-04-21T11:53:01.054Z,13.70
2019-04-21T11:55:34.367Z,13.70
2019-04-21T11:58:00.307Z,13.50
2019-04-21T12:00:29.505Z,13.60
2019-04-21T12:02:59.510Z,13.50
2019-04-21T12:05:29.669Z,13.60
2019-04-21T12:07:58.916Z,13.60
2019-04-21T12:10:29.258Z,13.70
2019-04-21T12:12:59.229Z,13.70
2019-04-21T12:15:29.100Z,13.70
2019-04-21T12:17:58.043Z,13.50
2019-04-21T12:20:26.766Z,14.00
2019-04-21T12:22:55.419Z,13.90
2019-04-21T12:25:38.939Z,14.40
2019-04-21T12:28:07.896Z,14.60
2019-04-21T12:30:37.771Z,14.70
2019-04-21T12:33:08.186Z,14.40
2019-04-21T12:35:37.777Z,13.70
2019-04-21T12:38:06.723Z,13.80
2019-04-21T12:40:36.687Z,13.80
2019-04-21T12:43:06.482Z,13.90
2019-04-21T12:45:35.945Z,14.00
2019-04-21T12:48:06.065Z,14.30
2019-04-21T12:50:35.998Z,14.60
2019-04-21T12:53:05.368Z,14.70
2019-04-21T12:55:37.440Z,14.60
2019-04-21T12:58:03.732Z,14.30
2019-04-21T13:00:33.365Z,14.10
2019-04-21T13:03:02.035Z,14.30
2019-04-21T13:05:31.638Z,14.30
2019-04-21T13:08:01.518Z,13.80
2019-04-21T13:10:30.681Z,13.80
2019-04-21T13:12:59.768Z,13.90
2019-04-21T13:15:29.335Z,13.90
2019-04-21T13:17:58.486Z,14.00
2019-04-21T13:20:27.562Z,14.00
2019-04-21T13:22:57.692Z,13.70
2019-04-21T13:25:27.697Z,13.80
2019-04-21T13:27:56.525Z,13.90
2019-04-21T13:30:26.377Z,14.00
2019-04-21T13:32:55.477Z,13.90
2019-04-21T13:35:24.367Z,14.00
2019-04-21T13:37:54.258Z,14.10
2019-04-21T13:40:57.017Z,14.20
2019-04-21T13:43:12.462Z,14.20
2019-04-21T13:45:41.566Z,14.20
2019-04-21T13:48:10.563Z,14.20
2019-04-21T13:50:39.538Z,14.30
2019-04-21T13:53:09.019Z,14.00
2019-04-21T13:55:38.944Z,14.10
2019-04-21T13:58:10.412Z,14.10
2019-04-21T14:00:39.971Z,14.10
2019-04-21T14:03:10.283Z,14.10
2019-04-21T14:05:40.243Z,14.30
2019-04-21T14:08:11.282Z,14.30
2019-04-21T14:10:39.989Z,14.50
2019-04-21T14:13:08.717Z,14.60
2019-04-21T14:15:37.822Z,14.70
2019-04-21T14:18:06.916Z,14.70
2019-04-21T14:20:35.595Z,14.60
2019-04-21T14:23:15.847Z,14.80
2019-04-21T14:25:35.485Z,15.10
2019-04-21T14:28:04.372Z,15.20
2019-04-21T14:30:34.624Z,15.30
2019-04-21T14:33:04.442Z,15.10
2019-04-21T14:35:34.700Z,15.00
2019-04-21T14:38:04.748Z,15.20
2019-04-21T14:40:35.542Z,15.20
2019-04-21T14:43:05.831Z,15.30
2019-04-21T14:45:38.847Z,15.10
2019-04-21T14:48:25.589Z,15.30
2019-04-21T14:51:13.185Z,15.50
2019-04-21T14:53:43.659Z,15.70
2019-04-21T14:56:13.254Z,15.50
2019-04-21T14:58:43.214Z,15.40
2019-04-21T15:01:12.021Z,15.60
2019-04-21T15:03:41.698Z,15.40
2019-04-21T15:06:11.617Z,15.10
2019-04-21T15:08:40.316Z,15.10
2019-04-21T15:11:09.652Z,15.00
2019-04-21T15:13:39.667Z,15.00
2019-04-21T15:16:08.961Z,15.00
2019-04-21T15:18:38.870Z,15.00
2019-04-21T15:21:07.816Z,15.20
2019-04-21T15:23:36.579Z,15.20
2019-04-21T15:26:06.081Z,15.40
2019-04-21T15:28:37.247Z,15.50
2019-04-21T15:31:05.194Z,15.50
2019-04-21T15:33:34.947Z,15.50
2019-04-21T15:36:05.099Z,15.60
2019-04-21T15:38:33.981Z,15.60
2019-04-21T15:41:06.428Z,15.50
2019-04-21T15:43:33.536Z,15.50
2019-04-21T15:46:02.613Z,15.60
2019-04-21T15:48:31.301Z,15.60
2019-04-21T15:51:03.677Z,15.50
2019-04-21T15:53:32.026Z,15.50
2019-04-21T15:56:18.686Z,15.40
2019-04-21T15:58:54.891Z,15.30
2019-04-21T16:01:32.449Z,15.20
2019-04-21T16:04:02.855Z,14.80
2019-04-21T16:06:32.035Z,14.70
2019-04-21T16:09:02.508Z,14.70
2019-04-21T16:11:31.604Z,14.60
2019-04-21T16:13:59.687Z,14.50
2019-04-21T16:16:30.502Z,14.50
2019-04-21T16:18:58.669Z,14.40
2019-04-21T16:21:27.299Z,14.20
2019-04-21T16:23:56.453Z,14.10
2019-04-21T16:26:26.732Z,13.80
2019-04-21T16:28:55.635Z,13.60
2019-04-21T16:31:24.735Z,13.40
2019-04-21T16:33:54.710Z,13.20
2019-04-21T16:36:23.510Z,13.10
2019-04-21T16:38:53.479Z,13.00
2019-04-21T16:41:22.487Z,12.80
2019-04-21T16:43:51.415Z,12.70
2019-04-21T16:46:21.121Z,12.70
2019-04-21T16:48:49.804Z,12.60
2019-04-21T16:51:18.366Z,12.50
2019-04-21T16:53:48.557Z,12.40
2019-04-21T16:56:24.856Z,12.20
2019-04-21T16:58:55.147Z,12.10
2019-04-21T17:01:31.855Z,12.00
2019-04-21T17:04:02.230Z,11.90
2019-04-21T17:06:31.223Z,11.80
2019-04-21T17:09:00.962Z,11.70
2019-04-21T17:11:34.696Z,11.70
2019-04-21T17:14:00.547Z,11.60
2019-04-21T17:17:00.329Z,11.60
2019-04-21T17:19:12.789Z,11.50
2019-04-21T17:21:30.225Z,11.40
2019-04-21T17:23:59.151Z,11.30
2019-04-21T17:26:29.054Z,11.30
2019-04-21T17:28:58.743Z,11.20
2019-04-21T17:31:28.783Z,11.10
2019-04-21T17:34:06.349Z,11.10
2019-04-21T17:36:29.328Z,10.90
2019-04-21T17:38:59.977Z,10.80
2019-04-21T17:41:36.453Z,10.70
2019-04-21T17:44:00.372Z,10.70
2019-04-21T17:46:38.609Z,10.60
2019-04-21T17:49:01.026Z,10.50
2019-04-21T17:51:31.978Z,10.40
2019-04-21T17:54:13.576Z,10.40
2019-04-21T17:57:00.464Z,10.30
2019-04-21T17:59:43.115Z,10.20
2019-04-21T18:01:54.673Z,10.20
2019-04-21T18:04:29.249Z,10.30
2019-04-21T18:06:59.628Z,10.20
2019-04-21T18:09:44.108Z,10.10
2019-04-21T18:12:06.877Z,9.90
2019-04-21T18:14:15.816Z,9.80
2019-04-21T18:16:47.871Z,9.80
2019-04-21T18:19:15.208Z,10.00
2019-04-21T18:21:51.394Z,9.90
2019-04-21T18:24:22.438Z,9.90
2019-04-21T18:26:55.418Z,9.80
2019-04-21T18:29:19.586Z,9.70
2019-04-21T18:31:50.440Z,9.70
2019-04-21T18:34:31.030Z,9.60
2019-04-21T18:37:10.728Z,9.60
2019-04-21T18:40:02.415Z,9.60
2019-04-21T18:42:57.473Z,9.50
2019-04-21T18:45:47.932Z,9.40
2019-04-21T18:48:18.942Z,9.30
2019-04-21T18:50:50.704Z,9.40
2019-04-21T18:53:44.830Z,9.30
2019-04-21T18:56:07.430Z,9.20
2019-04-21T18:58:32.955Z,9.10
2019-04-21T19:01:07.555Z,9.00
2019-04-21T19:03:39.678Z,8.90
2019-04-21T19:06:10.779Z,8.80
2019-04-21T19:08:56.154Z,8.80
2019-04-21T19:11:25.434Z,8.70
2019-04-21T19:14:22.515Z,8.70
2019-04-21T19:16:43.156Z,8.50
2019-04-21T19:21:33.513Z,8.40
2019-04-21T19:24:18.589Z,8.40
2019-04-21T19:26:46.552Z,8.40
2019-04-21T19:29:22.231Z,8.40
2019-04-21T19:31:44.440Z,8.30
2019-04-21T19:34:02.079Z,8.30
2019-04-21T19:36:23.667Z,8.10
2019-04-21T19:39:03.485Z,8.00
2019-04-21T19:41:38.250Z,8.00
2019-04-21T19:44:12.880Z,7.90
2019-04-21T19:46:40.331Z,7.80
2019-04-21T19:49:18.308Z,7.90
2019-04-21T19:51:36.467Z,7.70
2019-04-21T19:54:03.765Z,7.70
2019-04-21T19:56:25.856Z,7.70
2019-04-21T19:58:55.007Z,7.70
2019-04-21T20:01:23.677Z,7.60
2019-04-21T20:03:57.198Z,7.50
2019-04-21T20:06:44.102Z,7.40
2019-04-21T20:09:12.217Z,7.40
2019-04-21T20:11:37.221Z,7.30
2019-04-21T20:14:37.605Z,7.20
2019-04-21T20:16:46.900Z,7.10
2019-04-21T20:19:00.352Z,7.10
2019-04-21T20:21:24.889Z,7.00
2019-04-21T20:23:57.505Z,7.00
2019-04-21T20:26:30.506Z,7.00
2019-04-21T20:29:05.553Z,7.00
2019-04-21T20:31:39.740Z,7.00
2019-04-21T20:34:30.528Z,6.90
2019-04-21T20:36:51.083Z,7.00
2019-04-21T20:39:05.461Z,7.00
2019-04-21T20:41:37.976Z,6.90
2019-04-21T20:44:17.287Z,6.90
2019-04-21T20:46:38.648Z,6.90
2019-04-21T20:49:09.741Z,7.00
2019-04-21T20:51:41.797Z,6.90
2019-04-21T20:54:16.111Z,6.90
2019-04-21T20:56:45.237Z,6.90
2019-04-21T20:59:12.169Z,7.00
2019-04-21T21:01:43.221Z,7.10
2019-04-21T21:04:12.474Z,7.20
2019-04-21T21:06:44.536Z,7.10
2019-04-21T21:09:14.588Z,7.00
2019-04-21T21:11:56.872Z,7.10
2019-04-21T21:14:16.116Z,7.30
2019-04-21T21:16:50.740Z,7.30
2019-04-21T21:19:22.058Z,7.20
2019-04-21T21:21:45.772Z,6.90
2019-04-21T21:24:15.101Z,6.80
2019-04-21T21:26:48.628Z,6.70
2019-04-21T21:29:22.833Z,6.70
2019-04-21T21:31:50.668Z,6.80
2019-04-21T21:34:23.130Z,6.90
2019-04-21T21:36:47.735Z,7.00
2019-04-21T21:39:24.995Z,7.00
2019-04-21T21:41:38.572Z,7.10
2019-04-21T21:44:10.554Z,7.40
2019-04-21T21:46:48.673Z,7.40
2019-04-21T21:49:20.733Z,7.60
2019-04-21T21:51:48.416Z,7.60
2019-04-21T21:54:05.509Z,7.50
2019-04-21T21:56:34.394Z,7.60
2019-04-21T21:59:10.569Z,7.70
2019-04-21T22:01:39.917Z,7.50
2019-04-21T22:04:10.955Z,7.60
2019-04-21T22:06:43.349Z,7.50
2019-04-21T22:09:10.301Z,7.50
2019-04-21T22:11:40.169Z,7.30
2019-04-21T22:14:12.167Z,7.10
2019-04-21T22:16:49.443Z,7.00
2019-04-21T22:19:29.987Z,7.00
2019-04-21T22:22:01.009Z,6.90
2019-04-21T22:24:27.894Z,6.90
2019-04-21T22:26:41.054Z,6.90
2019-04-21T22:29:09.794Z,6.90
2019-04-21T22:31:40.702Z,6.80
2019-04-21T22:34:12.248Z,6.80
2019-04-21T22:36:52.764Z,6.80
2019-04-21T22:39:30.672Z,6.70
2019-04-21T22:41:46.621Z,6.60
2019-04-21T22:44:16.854Z,6.50
2019-04-21T22:46:58.632Z,6.50
2019-04-21T22:49:17.922Z,6.50
2019-04-21T22:51:49.988Z,6.30
2019-04-21T22:54:22.214Z,6.20
2019-04-21T22:56:56.579Z,6.10
2019-04-21T22:59:20.997Z,6.10
2019-04-21T23:01:50.443Z,6.30
2019-04-21T23:04:18.036Z,6.40
2019-04-21T23:06:48.783Z,6.40
2019-04-21T23:09:17.042Z,6.40
2019-04-21T23:11:50.520Z,6.50
2019-04-21T23:14:18.869Z,6.40
2019-04-21T23:16:50.658Z,6.30
2019-04-21T23:19:32.391Z,6.30
2019-04-21T23:22:03.817Z,6.20
2019-04-21T23:24:40.412Z,6.30
2019-04-21T23:27:05.703Z,6.20
2019-04-21T23:29:51.019Z,6.10
2019-04-21T23:32:06.342Z,6.10
2019-04-21T23:34:25.149Z,6.30
2019-04-21T23:36:57.638Z,6.20
2019-04-21T23:39:26.548Z,6.40
2019-04-21T23:41:53.950Z,6.40
2019-04-21T23:44:22.220Z,6.20
2019-04-21T23:46:54.665Z,6.00
2019-04-21T23:49:34.273Z,6.00
2019-04-21T23:51:59.120Z,6.00
2019-04-21T23:54:23.004Z,6.00
2019-04-21T23:56:51.954Z,5.90
2019-04-21T23:59:20.654Z,5.90
